Pointe A La Hache, LA (70082)

10:02 AM CST on February 10, 2016 (GMT -0600)
Myrtle Grove | | Change Station
CLOSE
Current Station
Personal Weather Station
Location: Port Sulphur, LA
Elevation: 0 ft
Nearby Weather Stations

Elev 0 ft 29.64 °N, 89.95 °W | Updated 24 seconds ago

Clear
Clear
49.6 °F
Feels Like 50 °F
N
2.0
Wind Variable Wind from NE
Gusts 2.5 mph

Today
High -- | Low -- °F
--% Chance of Precip.
Yesterday
High -- | Low -- °F
Precip. -- in
Pressure 30.39 in
Visibility 10.0 miles
Clouds Clear
Windchill 50 °F
Dew Point 12 °F
Humidity 22%
Rainfall 0.00 in
Snow Depth Not available.
6:42 AM 5:44 PM
Waxing Crescent, 6% visible
METAR KNBG 101555Z 00000KT 10SM CLR 09/M06 A3039 RMK AO2 SLP289 T00941056 $
Pressure 30.39 in
Visibility 10.0 miles
Clouds Clear
Windchill 50 °F
Dew Point 12 °F
Humidity 22%
Rainfall 0.00 in
Snow Depth Not available.
6:42 AM 5:44 PM
Waxing Crescent, 6% visible
METAR KNBG 101555Z 00000KT 10SM CLR 09/M06 A3039 RMK AO2 SLP289 T00941056 $

10-Day Weather Forecast

Almanac

Astronomy

Feb. 10, 2016 Rise Set
Actual Time
Civil Twilight
Nautical Twilight
Astronomical Twilight
Moon
Length of Visible Light
Length of Day
Tomorrow will be .
, % of the Moon is Illuminated

Today's Extremes

State Highs State Lows

Community

WunderPhotos

Upload Photos

1,891,862 photos uploaded!

WunderBlog® & News

Nearby

Air Quality

  Air Quality AQ Index Pollutant
Not available.

Snow Depth

Station Depth Elevation

Earthquake Activity

City Distance Mag. Time & Date
Minimum magnitude displayed is 2.5.

Coastal Water Temperatures

Place Temperature

Stations

Nearby Weather Stations

Station Location Temp. Windchill Dew Point Humidity Wind Precip. Elev Updated Type
                   

Watches & Warnings

There are currently no watches in effect.